sensor_id;sensor_type;location;lat;lon;timestamp;P1;durP1;ratioP1;P2;durP2;ratioP2
38252;SDS011;24785;52.372;20.672;2023-09-08T00:08:43;13.07;;;6.78;;
38252;SDS011;24785;52.372;20.672;2023-09-08T00:18:44;8.10;;;5.10;;
38252;SDS011;24785;52.372;20.672;2023-09-08T00:28:45;9.40;;;5.38;;
38252;SDS011;24785;52.372;20.672;2023-09-08T00:38:46;8.95;;;5.13;;
38252;SDS011;24785;52.372;20.672;2023-09-08T00:48:46;10.98;;;6.13;;
38252;SDS011;24785;52.372;20.672;2023-09-08T00:58:47;9.38;;;6.35;;
38252;SDS011;24785;52.372;20.672;2023-09-08T01:08:48;10.50;;;5.90;;
38252;SDS011;24785;52.372;20.672;2023-09-08T01:18:50;11.53;;;6.27;;
38252;SDS011;24785;52.372;20.672;2023-09-08T01:28:52;10.93;;;5.83;;
38252;SDS011;24785;52.372;20.672;2023-09-08T01:38:55;10.43;;;5.60;;
38252;SDS011;24785;52.372;20.672;2023-09-08T01:48:55;5.25;;;3.40;;
38252;SDS011;24785;52.372;20.672;2023-09-08T01:58:56;6.65;;;3.70;;
38252;SDS011;24785;52.372;20.672;2023-09-08T02:08:57;7.57;;;3.78;;
38252;SDS011;24785;52.372;20.672;2023-09-08T02:18:58;8.90;;;5.57;;
38252;SDS011;24785;52.372;20.672;2023-09-08T02:28:59;9.43;;;5.47;;
38252;SDS011;24785;52.372;20.672;2023-09-08T02:39:00;8.88;;;4.57;;
38252;SDS011;24785;52.372;20.672;2023-09-08T02:49:01;11.63;;;5.50;;
38252;SDS011;24785;52.372;20.672;2023-09-08T02:59:02;11.25;;;5.70;;
38252;SDS011;24785;52.372;20.672;2023-09-08T03:09:03;12.40;;;6.43;;
38252;SDS011;24785;52.372;20.672;2023-09-08T03:19:04;14.18;;;6.90;;
38252;SDS011;24785;52.372;20.672;2023-09-08T03:29:05;9.77;;;4.53;;
38252;SDS011;24785;52.372;20.672;2023-09-08T03:39:06;12.05;;;5.50;;
38252;SDS011;24785;52.372;20.672;2023-09-08T03:49:09;11.07;;;5.70;;
38252;SDS011;24785;52.372;20.672;2023-09-08T03:59:10;8.73;;;4.72;;
38252;SDS011;24785;52.372;20.672;2023-09-08T04:09:11;13.80;;;6.43;;
38252;SDS011;24785;52.372;20.672;2023-09-08T04:19:12;12.15;;;5.13;;
38252;SDS011;24785;52.372;20.672;2023-09-08T04:29:12;8.45;;;5.22;;
38252;SDS011;24785;52.372;20.672;2023-09-08T04:39:13;10.43;;;5.28;;
38252;SDS011;24785;52.372;20.672;2023-09-08T04:49:16;12.50;;;5.93;;
38252;SDS011;24785;52.372;20.672;2023-09-08T04:59:16;16.33;;;5.95;;
38252;SDS011;24785;52.372;20.672;2023-09-08T05:09:17;18.02;;;6.75;;
38252;SDS011;24785;52.372;20.672;2023-09-08T05:19:18;18.20;;;7.22;;
38252;SDS011;24785;52.372;20.672;2023-09-08T05:29:19;17.27;;;7.50;;
38252;SDS011;24785;52.372;20.672;2023-09-08T05:39:20;20.25;;;7.75;;
38252;SDS011;24785;52.372;20.672;2023-09-08T05:49:20;23.77;;;8.80;;
38252;SDS011;24785;52.372;20.672;2023-09-08T05:59:21;15.80;;;8.73;;
38252;SDS011;24785;52.372;20.672;2023-09-08T06:09:22;23.63;;;9.98;;
38252;SDS011;24785;52.372;20.672;2023-09-08T06:19:22;21.13;;;9.15;;
38252;SDS011;24785;52.372;20.672;2023-09-08T06:29:23;22.80;;;9.45;;
38252;SDS011;24785;52.372;20.672;2023-09-08T06:39:25;13.82;;;8.50;;
38252;SDS011;24785;52.372;20.672;2023-09-08T06:49:27;13.90;;;8.75;;
38252;SDS011;24785;52.372;20.672;2023-09-08T06:59:27;19.75;;;8.75;;
38252;SDS011;24785;52.372;20.672;2023-09-08T07:09:28;11.60;;;7.60;;
38252;SDS011;24785;52.372;20.672;2023-09-08T07:19:29;12.82;;;7.95;;
38252;SDS011;24785;52.372;20.672;2023-09-08T07:29:30;13.10;;;7.43;;
38252;SDS011;24785;52.372;20.672;2023-09-08T07:39:30;19.85;;;7.75;;
38252;SDS011;24785;52.372;20.672;2023-09-08T07:49:33;10.77;;;7.15;;
38252;SDS011;24785;52.372;20.672;2023-09-08T07:59:34;14.97;;;8.00;;
38252;SDS011;24785;52.372;20.672;2023-09-08T08:09:35;16.73;;;7.80;;
38252;SDS011;24785;52.372;20.672;2023-09-08T08:19:36;12.00;;;6.80;;
38252;SDS011;24785;52.372;20.672;2023-09-08T08:29:36;12.03;;;6.30;;
38252;SDS011;24785;52.372;20.672;2023-09-08T08:39:37;13.03;;;6.53;;
38252;SDS011;24785;52.372;20.672;2023-09-08T08:49:38;14.83;;;6.50;;
38252;SDS011;24785;52.372;20.672;2023-09-08T08:59:43;12.00;;;5.63;;
38252;SDS011;24785;52.372;20.672;2023-09-08T09:19:45;9.70;;;5.78;;
38252;SDS011;24785;52.372;20.672;2023-09-08T09:29:46;6.87;;;4.73;;
38252;SDS011;24785;52.372;20.672;2023-09-08T09:39:49;7.72;;;4.72;;
38252;SDS011;24785;52.372;20.672;2023-09-08T09:49:50;9.68;;;5.75;;
38252;SDS011;24785;52.372;20.672;2023-09-08T09:59:51;7.63;;;4.00;;
38252;SDS011;24785;52.372;20.672;2023-09-08T10:09:54;6.50;;;3.80;;
38252;SDS011;24785;52.372;20.672;2023-09-08T10:19:54;6.10;;;3.10;;
38252;SDS011;24785;52.372;20.672;2023-09-08T10:30:00;6.72;;;2.97;;
38252;SDS011;24785;52.372;20.672;2023-09-08T10:50:34;7.07;;;3.63;;
38252;SDS011;24785;52.372;20.672;2023-09-08T11:00:43;4.57;;;2.95;;
38252;SDS011;24785;52.372;20.672;2023-09-08T11:10:46;7.38;;;3.67;;
38252;SDS011;24785;52.372;20.672;2023-09-08T11:20:51;5.83;;;3.20;;
38252;SDS011;24785;52.372;20.672;2023-09-08T11:30:52;8.57;;;3.25;;
38252;SDS011;24785;52.372;20.672;2023-09-08T11:40:54;20.83;;;7.07;;
38252;SDS011;24785;52.372;20.672;2023-09-08T11:50:57;5.50;;;4.05;;
38252;SDS011;24785;52.372;20.672;2023-09-08T12:00:59;6.07;;;3.60;;
38252;SDS011;24785;52.372;20.672;2023-09-08T12:11:00;5.80;;;3.37;;
38252;SDS011;24785;52.372;20.672;2023-09-08T12:21:04;9.57;;;3.88;;
38252;SDS011;24785;52.372;20.672;2023-09-08T12:31:08;6.85;;;3.60;;
38252;SDS011;24785;52.372;20.672;2023-09-08T12:41:10;6.22;;;3.40;;
38252;SDS011;24785;52.372;20.672;2023-09-08T12:51:11;6.00;;;2.75;;
38252;SDS011;24785;52.372;20.672;2023-09-08T13:01:11;6.37;;;3.53;;
38252;SDS011;24785;52.372;20.672;2023-09-08T13:11:12;5.53;;;3.10;;
38252;SDS011;24785;52.372;20.672;2023-09-08T13:21:13;8.40;;;3.47;;
38252;SDS011;24785;52.372;20.672;2023-09-08T13:31:13;6.50;;;3.17;;
38252;SDS011;24785;52.372;20.672;2023-09-08T13:41:14;7.77;;;4.07;;
38252;SDS011;24785;52.372;20.672;2023-09-08T13:51:15;6.70;;;3.20;;
38252;SDS011;24785;52.372;20.672;2023-09-08T14:01:16;5.90;;;2.80;;
38252;SDS011;24785;52.372;20.672;2023-09-08T14:11:17;7.82;;;3.20;;
38252;SDS011;24785;52.372;20.672;2023-09-08T14:31:19;4.77;;;3.37;;
38252;SDS011;24785;52.372;20.672;2023-09-08T14:51:21;7.43;;;3.73;;
38252;SDS011;24785;52.372;20.672;2023-09-08T15:11:22;5.20;;;3.40;;
38252;SDS011;24785;52.372;20.672;2023-09-08T15:21:24;8.60;;;3.33;;
38252;SDS011;24785;52.372;20.672;2023-09-08T15:31:28;4.85;;;3.03;;
38252;SDS011;24785;52.372;20.672;2023-09-08T15:41:29;9.70;;;3.45;;
38252;SDS011;24785;52.372;20.672;2023-09-08T15:51:29;8.80;;;3.60;;
38252;SDS011;24785;52.372;20.672;2023-09-08T16:01:30;8.73;;;3.13;;
38252;SDS011;24785;52.372;20.672;2023-09-08T16:11:32;6.07;;;3.23;;
38252;SDS011;24785;52.372;20.672;2023-09-08T16:21:33;10.45;;;4.55;;
38252;SDS011;24785;52.372;20.672;2023-09-08T16:31:34;20.53;;;4.60;;
38252;SDS011;24785;52.372;20.672;2023-09-08T16:41:35;9.73;;;3.67;;
38252;SDS011;24785;52.372;20.672;2023-09-08T16:51:35;12.30;;;4.03;;
38252;SDS011;24785;52.372;20.672;2023-09-08T17:01:36;5.20;;;3.73;;
38252;SDS011;24785;52.372;20.672;2023-09-08T17:11:37;10.10;;;4.70;;
38252;SDS011;24785;52.372;20.672;2023-09-08T17:21:40;15.70;;;5.47;;
38252;SDS011;24785;52.372;20.672;2023-09-08T17:31:41;16.10;;;5.30;;
38252;SDS011;24785;52.372;20.672;2023-09-08T17:41:42;11.52;;;5.47;;
38252;SDS011;24785;52.372;20.672;2023-09-08T17:51:42;17.38;;;5.88;;
38252;SDS011;24785;52.372;20.672;2023-09-08T18:01:43;16.02;;;5.63;;
38252;SDS011;24785;52.372;20.672;2023-09-08T18:11:44;15.75;;;7.93;;
38252;SDS011;24785;52.372;20.672;2023-09-08T18:21:45;19.60;;;8.07;;
38252;SDS011;24785;52.372;20.672;2023-09-08T18:31:46;17.10;;;7.60;;
38252;SDS011;24785;52.372;20.672;2023-09-08T18:41:47;21.47;;;8.27;;
38252;SDS011;24785;52.372;20.672;2023-09-08T18:51:48;12.15;;;6.43;;
38252;SDS011;24785;52.372;20.672;2023-09-08T19:01:49;14.60;;;7.32;;
38252;SDS011;24785;52.372;20.672;2023-09-08T19:11:50;13.23;;;7.00;;
38252;SDS011;24785;52.372;20.672;2023-09-08T19:21:51;13.90;;;6.50;;
38252;SDS011;24785;52.372;20.672;2023-09-08T19:31:52;13.95;;;7.10;;
38252;SDS011;24785;52.372;20.672;2023-09-08T19:41:53;15.50;;;7.38;;
38252;SDS011;24785;52.372;20.672;2023-09-08T19:51:53;11.93;;;7.65;;
38252;SDS011;24785;52.372;20.672;2023-09-08T20:01:54;10.40;;;6.63;;
38252;SDS011;24785;52.372;20.672;2023-09-08T20:11:55;10.93;;;6.03;;
38252;SDS011;24785;52.372;20.672;2023-09-08T20:21:56;11.52;;;6.63;;
38252;SDS011;24785;52.372;20.672;2023-09-08T20:31:57;15.05;;;7.80;;
38252;SDS011;24785;52.372;20.672;2023-09-08T20:41:58;21.58;;;8.55;;
38252;SDS011;24785;52.372;20.672;2023-09-08T20:51:59;15.15;;;8.43;;
38252;SDS011;24785;52.372;20.672;2023-09-08T21:02:00;13.27;;;7.20;;
38252;SDS011;24785;52.372;20.672;2023-09-08T21:12:01;9.65;;;6.15;;
38252;SDS011;24785;52.372;20.672;2023-09-08T21:22:01;9.57;;;5.18;;
38252;SDS011;24785;52.372;20.672;2023-09-08T21:32:02;7.85;;;4.97;;
38252;SDS011;24785;52.372;20.672;2023-09-08T21:42:03;8.90;;;4.53;;
38252;SDS011;24785;52.372;20.672;2023-09-08T21:52:04;6.82;;;4.60;;
38252;SDS011;24785;52.372;20.672;2023-09-08T22:02:05;6.80;;;4.53;;
38252;SDS011;24785;52.372;20.672;2023-09-08T22:12:06;8.30;;;5.18;;
38252;SDS011;24785;52.372;20.672;2023-09-08T22:22:07;7.60;;;5.30;;
38252;SDS011;24785;52.372;20.672;2023-09-08T22:32:08;10.68;;;6.20;;
38252;SDS011;24785;52.372;20.672;2023-09-08T22:42:09;10.07;;;6.07;;
38252;SDS011;24785;52.372;20.672;2023-09-08T22:52:10;10.68;;;6.35;;
38252;SDS011;24785;52.372;20.672;2023-09-08T23:02:10;10.93;;;6.07;;
38252;SDS011;24785;52.372;20.672;2023-09-08T23:12:11;11.30;;;5.97;;
38252;SDS011;24785;52.372;20.672;2023-09-08T23:22:12;10.13;;;5.80;;
38252;SDS011;24785;52.372;20.672;2023-09-08T23:32:13;12.20;;;6.35;;
38252;SDS011;24785;52.372;20.672;2023-09-08T23:42:16;8.35;;;5.47;;
38252;SDS011;24785;52.372;20.672;2023-09-08T23:52:17;8.18;;;4.93;;
